Time;durP1;ratioP1;P1;durP2;ratioP2;P2;SDS_P1;SDS_P2;PMS_P1;PMS_P2;Temp;Humidity;BMP_temperature;BMP_pressure;BME280_temperature;BME280_humidity;BME280_pressure;Samples;Min_cycle;Max_cycle;Signal;HPM_P1;HPM_P2
2021/10/30 00:00:57;;;;;;;53.28;37.53;;;11.10;66.80;;;;;;5035235;28;20040;-64
2021/10/30 00:03:26;;;;;;;50.55;38.92;;;11.10;66.50;;;;;;5035974;28;20033;-63
2021/10/30 00:05:53;;;;;;;50.55;40.15;;;11.10;66.60;;;;;;5052841;28;20454;-64
2021/10/30 00:08:19;;;;;;;51.88;39.63;;;11.10;66.30;;;;;;5034568;28;20025;-64
2021/10/30 00:10:45;;;;;;;53.53;41.63;;;11.20;66.10;;;;;;5035043;28;20033;-64
2021/10/30 00:13:11;;;;;;;58.53;40.63;;;11.20;66.20;;;;;;5051998;28;20021;-64
2021/10/30 00:15:37;;;;;;;54.35;40.53;;;11.10;66.20;;;;;;5052963;28;20049;-64
2021/10/30 00:18:03;;;;;;;54.28;42.22;;;11.20;66.10;;;;;;5018010;28;20029;-64
2021/10/30 00:20:29;;;;;;;53.75;40.70;;;11.20;66.10;;;;;;5035330;28;20382;-63
2021/10/30 00:22:55;;;;;;;57.03;41.25;;;11.10;66.50;;;;;;5053237;28;20032;-63
2021/10/30 00:25:21;;;;;;;59.05;42.97;;;11.00;66.70;;;;;;5052474;28;20022;-63
2021/10/30 00:27:46;;;;;;;56.80;42.20;;;11.00;66.70;;;;;;5035227;28;20025;-64
2021/10/30 00:30:12;;;;;;;59.05;42.67;;;11.00;66.70;;;;;;5052253;28;20060;-63
2021/10/30 00:32:38;;;;;;;54.67;42.92;;;10.90;67.00;;;;;;5052703;28;20036;-63
2021/10/30 00:35:04;;;;;;;61.15;44.60;;;10.80;67.60;;;;;;5034604;28;20025;-63
2021/10/30 00:37:30;;;;;;;60.78;43.20;;;10.80;67.60;;;;;;5052901;28;20021;-63
2021/10/30 00:39:56;;;;;;;61.63;42.88;;;10.80;67.80;;;;;;5034890;28;20113;-66
2021/10/30 00:42:22;;;;;;;63.13;44.45;;;10.70;68.00;;;;;;5034654;28;20029;-64
2021/10/30 00:44:47;;;;;;;61.60;44.30;;;10.70;68.10;;;;;;5034420;28;20033;-68
2021/10/30 00:47:14;;;;;;;64.03;46.28;;;10.70;68.00;;;;;;5051935;28;20040;-67
2021/10/30 00:49:42;;;;;;;58.90;44.63;;;10.70;67.70;;;;;;5051968;28;20482;-68
2021/10/30 00:52:10;;;;;;;63.58;47.08;;;10.80;67.60;;;;;;5051894;28;20056;-72
2021/10/30 00:54:37;;;;;;;60.72;46.65;;;10.80;67.60;;;;;;5052275;28;20017;-67
2021/10/30 00:57:04;;;;;;;59.28;46.22;;;10.70;67.70;;;;;;5033818;28;20075;-68
2021/10/30 00:59:30;;;;;;;65.13;44.42;;;10.80;67.60;;;;;;5052199;28;20055;-68
2021/10/30 01:01:56;;;;;;;67.53;47.22;;;10.70;67.80;;;;;;5051915;28;20104;-70
2021/10/30 01:04:22;;;;;;;63.25;45.33;;;10.70;67.60;;;;;;5033767;28;20052;-68
2021/10/30 01:06:50;;;;;;;64.60;48.75;;;10.70;67.50;;;;;;5034113;28;20120;-68
2021/10/30 01:09:20;;;;;;;61.15;48.30;;;10.70;67.80;;;;;;5033458;28;20029;-67
2021/10/30 01:11:46;;;;;;;59.67;46.38;;;10.70;67.60;;;;;;5051984;28;20100;-68
2021/10/30 01:14:13;;;;;;;66.20;48.05;;;10.80;67.60;;;;;;5051228;28;20029;-68
2021/10/30 01:16:39;;;;;;;65.45;48.25;;;10.70;67.70;;;;;;5051469;28;20025;-69
2021/10/30 01:19:05;;;;;;;67.10;49.10;;;10.70;67.90;;;;;;5051178;28;20382;-69
2021/10/30 01:21:36;;;;;;;61.15;47.80;;;10.70;67.90;;;;;;5051496;28;20033;-66
2021/10/30 01:24:05;;;;;;;64.50;48.45;;;10.70;67.90;;;;;;5033635;28;20029;-70
2021/10/30 01:26:31;;;;;;;70.43;49.22;;;10.70;68.00;;;;;;5051712;28;20032;-69
2021/10/30 01:28:59;;;;;;;65.20;50.55;;;10.60;68.30;;;;;;5033605;28;20200;-67
2021/10/30 01:31:25;;;;;;;69.63;51.00;;;10.50;68.70;;;;;;5050862;28;20029;-70
2021/10/30 01:33:51;;;;;;;66.22;49.28;;;10.50;68.90;;;;;;5051120;28;20108;-70
2021/10/30 01:36:20;;;;;;;66.20;49.58;;;10.50;68.90;;;;;;5033242;28;20035;-68
2021/10/30 01:38:46;;;;;;;67.32;51.25;;;10.40;69.00;;;;;;5051401;28;20068;-69
2021/10/30 01:41:12;;;;;;;69.65;51.33;;;10.40;69.30;;;;;;5033007;28;20028;-68
2021/10/30 01:43:38;;;;;;;74.35;51.67;;;10.40;69.50;;;;;;5050843;28;20022;-67
2021/10/30 01:46:04;;;;;;;67.97;50.05;;;10.40;69.70;;;;;;5050786;28;20037;-69
2021/10/30 01:48:32;;;;;;;70.18;49.63;;;10.30;69.80;;;;;;5033532;28;20448;-67
2021/10/30 01:50:58;;;;;;;64.75;50.97;;;10.30;70.00;;;;;;5039132;28;20346;-67
2021/10/30 01:53:24;;;;;;;69.72;52.08;;;10.20;70.40;;;;;;5070912;28;20025;-69
2021/10/30 01:55:51;;;;;;;73.95;52.90;;;10.20;70.60;;;;;;5069853;28;20028;-66
2021/10/30 01:58:17;;;;;;;69.00;51.58;;;10.20;70.60;;;;;;5069286;28;20052;-69
2021/10/30 02:00:44;;;;;;;73.65;53.60;;;10.20;70.60;;;;;;5071298;28;20117;-68
2021/10/30 02:03:10;;;;;;;74.68;53.90;;;10.20;70.70;;;;;;5069192;28;20028;-68
2021/10/30 02:05:36;;;;;;;68.10;51.85;;;10.10;70.90;;;;;;5069925;28;20124;-68
2021/10/30 02:08:02;;;;;;;69.32;51.35;;;10.10;71.20;;;;;;5071303;28;20056;-70
2021/10/30 02:10:27;;;;;;;71.93;54.05;;;10.10;71.40;;;;;;5069260;28;20033;-68
2021/10/30 02:12:53;;;;;;;68.72;51.60;;;10.00;71.40;;;;;;5071248;28;20032;-69
2021/10/30 02:15:19;;;;;;;74.18;52.72;;;10.00;71.60;;;;;;5056761;28;20031;-68
2021/10/30 02:17:44;;;;;;;70.78;51.67;;;10.00;71.60;;;;;;5075074;28;20035;-69
2021/10/30 02:20:11;;;;;;;71.30;54.42;;;10.00;71.70;;;;;;5074271;28;20422;-69
2021/10/30 02:22:38;;;;;;;71.47;53.10;;;9.90;71.90;;;;;;5073556;28;20031;-68
2021/10/30 02:25:06;;;;;;;71.15;53.05;;;9.90;72.10;;;;;;5074929;28;20033;-70
2021/10/30 02:27:31;;;;;;;73.13;54.85;;;9.90;72.20;;;;;;5074605;28;20434;-68
2021/10/30 02:29:57;;;;;;;72.05;52.95;;;9.90;72.40;;;;;;5074819;28;20082;-67
2021/10/30 02:32:23;;;;;;;71.45;54.50;;;9.80;72.70;;;;;;5074464;28;20036;-69
2021/10/30 02:34:49;;;;;;;70.75;55.10;;;9.80;72.70;;;;;;5073360;28;20025;-69
2021/10/30 02:37:14;;;;;;;74.15;54.35;;;9.80;72.80;;;;;;5073991;28;20458;-71
2021/10/30 02:39:40;;;;;;;74.03;55.97;;;9.70;73.00;;;;;;5074361;28;20025;-69
2021/10/30 02:42:06;;;;;;;76.82;56.17;;;9.70;73.10;;;;;;5073450;28;20028;-69
2021/10/30 02:44:32;;;;;;;73.80;55.47;;;9.70;73.40;;;;;;5074147;28;20033;-68
2021/10/30 02:46:58;;;;;;;79.68;57.35;;;9.60;73.60;;;;;;5074629;28;20048;-68
2021/10/30 02:49:24;;;;;;;74.13;56.00;;;9.60;73.60;;;;;;5073807;28;20082;-69
2021/10/30 02:51:50;;;;;;;77.93;54.50;;;9.60;73.80;;;;;;5062179;28;20115;-70
2021/10/30 02:54:15;;;;;;;75.82;55.10;;;9.60;73.90;;;;;;5035995;28;20028;-69
2021/10/30 02:56:41;;;;;;;72.60;55.70;;;9.60;74.00;;;;;;5054129;28;20024;-68
2021/10/30 02:59:07;;;;;;;76.57;55.63;;;9.60;74.20;;;;;;5036439;28;20055;-69
2021/10/30 03:01:33;;;;;;;76.13;55.90;;;9.60;74.20;;;;;;5035580;28;20112;-69
2021/10/30 03:03:58;;;;;;;81.10;57.55;;;9.50;74.50;;;;;;5053878;28;20029;-66
2021/10/30 03:06:26;;;;;;;73.03;54.85;;;9.50;74.50;;;;;;5053483;28;20104;-67
2021/10/30 03:08:52;;;;;;;75.97;55.85;;;9.50;74.60;;;;;;5054124;28;20055;-65
2021/10/30 03:11:18;;;;;;;81.68;56.85;;;9.50;74.60;;;;;;5053400;28;20032;-70
2021/10/30 03:13:45;;;;;;;76.80;55.88;;;9.50;74.60;;;;;;5054171;28;20063;-68
2021/10/30 03:16:11;;;;;;;75.40;56.38;;;9.50;74.70;;;;;;5053232;28;20032;-68
2021/10/30 03:18:37;;;;;;;77.18;54.92;;;9.40;74.70;;;;;;5053862;28;20040;-69
2021/10/30 03:21:04;;;;;;;78.82;56.10;;;9.40;74.80;;;;;;5053956;28;20025;-69
2021/10/30 03:23:29;;;;;;;72.28;55.35;;;9.40;74.80;;;;;;5053026;28;20052;-68
2021/10/30 03:25:55;;;;;;;77.47;55.85;;;9.40;74.90;;;;;;5053048;28;20450;-69
2021/10/30 03:28:21;;;;;;;74.45;54.67;;;9.40;74.80;;;;;;5052929;28;20021;-70
2021/10/30 03:30:47;;;;;;;71.88;54.72;;;9.40;74.70;;;;;;5035762;28;20036;-70
2021/10/30 03:33:13;;;;;;;75.00;55.05;;;9.40;74.70;;;;;;5053247;28;20032;-70
2021/10/30 03:35:39;;;;;;;71.20;53.20;;;9.40;74.60;;;;;;5035598;28;20493;-71
2021/10/30 03:38:04;;;;;;;75.72;57.67;;;9.50;74.40;;;;;;5053416;28;20025;-70
2021/10/30 03:40:30;;;;;;;73.72;54.10;;;9.60;74.20;;;;;;5052999;28;20518;-69
2021/10/30 03:42:56;;;;;;;71.07;54.83;;;9.60;74.00;;;;;;5053306;28;20029;-68
2021/10/30 03:45:21;;;;;;;72.45;54.47;;;9.60;73.90;;;;;;5034549;28;20063;-70
2021/10/30 03:47:47;;;;;;;73.40;53.63;;;9.50;73.90;;;;;;5035467;28;20029;-69
2021/10/30 03:50:13;;;;;;;74.38;54.42;;;9.50;74.10;;;;;;5052371;28;20371;-71
2021/10/30 03:52:39;;;;;;;71.45;54.42;;;9.60;74.00;;;;;;5068704;28;20099;-69
2021/10/30 03:55:06;;;;;;;73.05;55.72;;;9.60;73.80;;;;;;5073328;28;20024;-70
2021/10/30 03:57:32;;;;;;;78.50;54.25;;;9.60;73.60;;;;;;5072487;28;20077;-69
2021/10/30 03:59:58;;;;;;;76.20;55.20;;;9.60;73.50;;;;;;5073301;28;20085;-69
2021/10/30 04:02:25;;;;;;;78.47;55.90;;;9.60;73.50;;;;;;5073071;28;20025;-71
2021/10/30 04:04:50;;;;;;;74.47;56.33;;;9.70;73.40;;;;;;5073199;28;20078;-70
2021/10/30 04:07:16;;;;;;;74.30;57.20;;;9.60;73.30;;;;;;5072663;28;20103;-70
2021/10/30 04:09:42;;;;;;;77.43;58.88;;;9.70;73.30;;;;;;5071589;28;20044;-70
2021/10/30 04:12:09;;;;;;;75.20;57.08;;;9.70;73.10;;;;;;5071595;28;20549;-70
2021/10/30 04:14:34;;;;;;;75.25;56.60;;;9.70;73.00;;;;;;5070829;28;20107;-71
2021/10/30 04:17:00;;;;;;;79.93;57.83;;;9.70;73.00;;;;;;5072670;28;20119;-71
2021/10/30 04:19:26;;;;;;;79.65;58.65;;;9.60;73.00;;;;;;5071083;28;20445;-70
2021/10/30 04:21:51;;;;;;;80.18;56.88;;;9.70;73.00;;;;;;5072453;28;20445;-71
2021/10/30 04:24:17;;;;;;;83.68;58.38;;;9.70;73.00;;;;;;5072156;28;20104;-68
2021/10/30 04:26:43;;;;;;;80.50;58.63;;;9.60;73.10;;;;;;5072661;28;20495;-70
2021/10/30 04:29:08;;;;;;;81.38;59.22;;;9.60;73.00;;;;;;5072232;28;20038;-70
2021/10/30 04:31:34;;;;;;;78.85;59.38;;;9.60;73.10;;;;;;5070234;28;20078;-70
2021/10/30 04:34:03;;;;;;;81.40;59.50;;;9.60;73.40;;;;;;5072458;28;20079;-69
2021/10/30 04:36:31;;;;;;;80.32;59.38;;;9.50;73.50;;;;;;5070759;28;20434;-69
2021/10/30 04:38:58;;;;;;;79.82;59.90;;;9.50;73.60;;;;;;5072355;28;20108;-70
2021/10/30 04:41:25;;;;;;;83.32;62.47;;;9.50;73.70;;;;;;5070562;28;20033;-69
2021/10/30 04:43:51;;;;;;;84.05;60.88;;;9.50;73.60;;;;;;5071037;28;20024;-69
2021/10/30 04:46:19;;;;;;;82.63;61.97;;;9.50;73.70;;;;;;5071750;28;20043;-71
2021/10/30 04:48:45;;;;;;;88.22;63.53;;;9.50;74.00;;;;;;5072139;28;20100;-70
2021/10/30 04:51:12;;;;;;;89.95;64.40;;;9.40;74.10;;;;;;5070454;28;20110;-68
2021/10/30 04:53:40;;;;;;;90.38;63.00;;;9.40;74.00;;;;;;5070313;28;20047;-70
2021/10/30 04:56:07;;;;;;;93.80;65.50;;;9.40;74.00;;;;;;5070662;28;20036;-69
2021/10/30 04:58:33;;;;;;;84.53;62.65;;;9.40;74.40;;;;;;5071271;28;20498;-70
2021/10/30 05:01:00;;;;;;;86.13;63.63;;;9.30;74.70;;;;;;5070650;28;20032;-70
2021/10/30 05:03:26;;;;;;;82.78;62.85;;;9.30;74.70;;;;;;5071436;28;20021;-71
2021/10/30 05:05:52;;;;;;;95.95;66.65;;;9.30;74.60;;;;;;5071975;28;20074;-69
2021/10/30 05:08:19;;;;;;;92.60;66.30;;;9.30;74.60;;;;;;5071402;28;20085;-71
2021/10/30 05:10:44;;;;;;;92.28;67.43;;;9.30;75.00;;;;;;5071768;28;20020;-71
2021/10/30 05:13:10;;;;;;;92.15;66.90;;;9.30;75.00;;;;;;5072101;28;20032;-69
2021/10/30 05:15:36;;;;;;;94.10;69.53;;;9.20;75.20;;;;;;5071349;28;20028;-69
2021/10/30 05:18:02;;;;;;;95.90;71.05;;;9.20;75.50;;;;;;5070535;28;20462;-69
2021/10/30 05:20:46;;;;;;;92.18;68.05;;;9.10;75.70;;;;;;5070728;28;20035;-71
2021/10/30 05:23:12;;;;;;;93.22;69.40;;;9.20;75.80;;;;;;5071695;28;20025;-69
2021/10/30 05:25:38;;;;;;;95.65;69.85;;;9.10;75.80;;;;;;5071138;28;20028;-69
2021/10/30 05:28:04;;;;;;;100.80;70.03;;;9.10;75.80;;;;;;5070144;28;20488;-70
2021/10/30 05:30:29;;;;;;;96.88;67.97;;;9.10;75.70;;;;;;5070910;28;20127;-69
2021/10/30 05:32:55;;;;;;;97.28;69.82;;;9.20;75.80;;;;;;5070118;28;20489;-68
2021/10/30 05:35:21;;;;;;;100.15;71.45;;;9.10;75.90;;;;;;5069685;28;20021;-70
2021/10/30 05:37:46;;;;;;;97.90;71.85;;;9.10;75.80;;;;;;5071294;28;20032;-70
2021/10/30 05:40:12;;;;;;;95.60;69.43;;;9.20;75.80;;;;;;5070116;28;20029;-71
2021/10/30 05:42:41;;;;;;;101.80;73.18;;;9.20;75.90;;;;;;5069577;28;20029;-70
2021/10/30 05:45:08;;;;;;;95.13;70.28;;;9.20;75.80;;;;;;5070069;28;20032;-69
2021/10/30 05:47:35;;;;;;;93.90;69.85;;;9.20;75.70;;;;;;5070514;28;20028;-70
2021/10/30 05:50:03;;;;;;;96.03;69.00;;;9.20;75.70;;;;;;5070031;28;20385;-69
2021/10/30 05:52:29;;;;;;;101.30;70.40;;;9.20;75.70;;;;;;5051549;28;20407;-69
2021/10/30 05:54:54;;;;;;;98.35;70.90;;;9.20;75.70;;;;;;5049414;28;20056;-69
2021/10/30 05:57:20;;;;;;;96.72;71.28;;;9.20;75.80;;;;;;5049633;28;20377;-69
2021/10/30 05:59:47;;;;;;;103.63;73.07;;;9.20;75.80;;;;;;5048104;28;20398;-68
2021/10/30 06:02:13;;;;;;;101.07;71.47;;;9.30;75.60;;;;;;5032079;28;20021;-68
2021/10/30 06:04:40;;;;;;;97.40;68.82;;;9.30;75.40;;;;;;5047996;28;20107;-72
2021/10/30 06:07:06;;;;;;;97.03;69.13;;;9.40;75.20;;;;;;5031758;28;20047;-70
2021/10/30 06:09:31;;;;;;;94.15;70.97;;;9.50;75.00;;;;;;5048477;28;20033;-71
2021/10/30 06:11:57;;;;;;;96.80;67.45;;;9.50;74.80;;;;;;5049487;28;20359;-70
2021/10/30 06:14:24;;;;;;;96.15;71.45;;;9.50;74.80;;;;;;5031536;28;20025;-72
2021/10/30 06:16:49;;;;;;;94.43;71.07;;;9.60;74.80;;;;;;5048971;28;20435;-70
2021/10/30 06:19:15;;;;;;;97.82;70.40;;;9.50;75.20;;;;;;5049334;28;20119;-68
2021/10/30 06:21:41;;;;;;;96.35;69.53;;;9.60;74.60;;;;;;5048441;28;20033;-70
2021/10/30 06:24:07;;;;;;;95.32;67.90;;;9.60;74.50;;;;;;5049713;28;20033;-72
2021/10/30 06:26:33;;;;;;;97.57;69.53;;;9.60;74.50;;;;;;5048483;28;20036;-72
2021/10/30 06:28:59;;;;;;;94.13;68.20;;;9.60;74.50;;;;;;5031682;28;20074;-70
2021/10/30 06:31:25;;;;;;;93.45;67.80;;;9.60;74.30;;;;;;5048976;28;20479;-69
2021/10/30 06:33:51;;;;;;;95.63;68.78;;;9.60;74.50;;;;;;5050787;28;20442;-70
2021/10/30 06:36:16;;;;;;;98.60;67.03;;;9.70;74.40;;;;;;5050536;28;20485;-69
2021/10/30 06:38:42;;;;;;;100.88;67.22;;;9.80;74.00;;;;;;5050275;28;20028;-69
2021/10/30 06:41:11;;;;;;;90.75;66.97;;;9.90;73.80;;;;;;5050559;28;20033;-69
2021/10/30 06:43:38;;;;;;;87.28;65.35;;;10.00;73.30;;;;;;5050067;28;20021;-71
2021/10/30 06:46:04;;;;;;;88.25;64.88;;;10.10;73.20;;;;;;5050580;28;20438;-70
2021/10/30 06:48:29;;;;;;;84.07;63.45;;;10.10;73.00;;;;;;5050052;28;20110;-69
2021/10/30 06:51:15;;;;;;;86.15;64.07;;;10.20;72.70;;;;;;5050326;28;20106;-68
2021/10/30 06:53:41;;;;;;;92.43;65.93;;;10.20;72.10;;;;;;5032101;28;20608;-69
2021/10/30 06:56:08;;;;;;;87.60;66.75;;;10.20;72.30;;;;;;5032412;28;20044;-69
2021/10/30 06:58:34;;;;;;;85.40;62.45;;;10.20;72.20;;;;;;5032471;28;20411;-66
2021/10/30 07:00:59;;;;;;;92.00;64.13;;;10.20;72.20;;;;;;5053570;28;20215;-67
2021/10/30 07:03:25;;;;;;;80.88;61.35;;;10.40;72.10;;;;;;5054380;28;20096;-69
2021/10/30 07:05:51;;;;;;;84.57;63.22;;;10.50;71.40;;;;;;5035941;28;20112;-68
2021/10/30 07:08:17;;;;;;;84.70;60.17;;;10.70;71.80;;;;;;5054013;28;20033;-68
2021/10/30 07:10:43;;;;;;;72.50;55.47;;;12.50;70.50;;;;;;5053445;28;20095;-68
2021/10/30 07:13:11;;;;;;;72.35;53.92;;;14.40;63.90;;;;;;5036094;28;20458;-69
2021/10/30 07:15:37;;;;;;;76.03;55.00;;;14.70;60.00;;;;;;5035626;28;20025;-69
2021/10/30 07:18:02;;;;;;;71.60;55.33;;;14.70;59.70;;;;;;5035604;28;20025;-69
2021/10/30 07:20:28;;;;;;;69.70;55.83;;;16.00;57.10;;;;;;5053111;28;20390;-69
2021/10/30 07:22:55;;;;;;;69.97;53.92;;;17.10;53.90;;;;;;5035948;28;20033;-71
2021/10/30 07:25:40;;;;;;;64.80;52.35;;;17.80;51.60;;;;;;5019587;28;20098;-70
2021/10/30 07:28:05;;;;;;;65.30;51.80;;;18.70;49.00;;;;;;5053816;28;20028;-67
2021/10/30 07:30:31;;;;;;;62.83;50.08;;;19.40;48.20;;;;;;5035425;28;20509;-68
2021/10/30 07:32:57;;;;;;;64.13;49.88;;;20.00;47.10;;;;;;5053467;28;20025;-67
2021/10/30 07:35:24;;;;;;;63.05;53.50;;;20.50;45.00;;;;;;5053732;28;20463;-64
2021/10/30 07:37:51;;;;;;;65.95;51.83;;;20.40;43.70;;;;;;5052948;28;20304;-68
2021/10/30 07:40:17;;;;;;;58.53;49.03;;;20.60;43.80;;;;;;5018993;28;20025;-70
2021/10/30 07:42:43;;;;;;;62.22;51.08;;;20.90;42.70;;;;;;5052347;28;20100;-68
2021/10/30 07:45:11;;;;;;;63.22;53.35;;;20.30;42.30;;;;;;5052810;28;20394;-68
2021/10/30 07:47:45;;;;;;;62.00;50.85;;;18.90;44.60;;;;;;5052268;28;20021;-69
2021/10/30 07:50:16;;;;;;;62.10;50.28;;;17.70;47.20;;;;;;5034136;28;20032;-67
2021/10/30 07:52:53;;;;;;;62.05;50.30;;;16.70;49.40;;;;;;5051497;28;20561;-70
2021/10/30 07:55:19;;;;;;;65.35;53.40;;;16.10;51.00;;;;;;5052257;28;20068;-73
2021/10/30 07:57:53;;;;;;;68.68;55.72;;;15.60;52.50;;;;;;5033684;28;20060;-74
2021/10/30 08:00:22;;;;;;;67.40;54.67;;;15.20;53.60;;;;;;5033770;28;20037;-75
2021/10/30 08:02:48;;;;;;;71.53;57.78;;;14.80;54.40;;;;;;5052366;28;20112;-75
2021/10/30 08:05:19;;;;;;;70.03;56.40;;;14.20;55.90;;;;;;5034280;28;20029;-74
2021/10/30 08:07:44;;;;;;;74.32;58.58;;;13.90;57.40;;;;;;5017604;28;20497;-74
2021/10/30 08:10:11;;;;;;;73.32;57.80;;;13.70;58.20;;;;;;5033933;28;20108;-74
2021/10/30 08:12:37;;;;;;;71.18;55.75;;;13.50;58.90;;;;;;5050742;28;20142;-71
2021/10/30 08:15:05;;;;;;;72.03;58.20;;;13.50;59.30;;;;;;5051902;28;20095;-72
2021/10/30 08:17:31;;;;;;;77.25;59.95;;;13.50;59.50;;;;;;5051663;28;20063;-72
2021/10/30 08:20:01;;;;;;;71.22;57.45;;;13.40;59.80;;;;;;5051364;28;20439;-80
2021/10/30 08:22:26;;;;;;;79.68;59.80;;;13.40;60.00;;;;;;5052362;28;20025;-77
2021/10/30 08:24:52;;;;;;;76.20;59.67;;;13.40;60.40;;;;;;5034243;28;20422;-68
2021/10/30 08:27:18;;;;;;;74.45;59.22;;;13.20;61.00;;;;;;5034450;28;20032;-68
2021/10/30 08:29:44;;;;;;;76.82;61.78;;;13.10;61.70;;;;;;5033909;28;20037;-67
2021/10/30 08:32:11;;;;;;;78.07;61.55;;;13.00;62.10;;;;;;5052116;28;20227;-69
2021/10/30 08:34:38;;;;;;;77.90;61.08;;;13.00;62.40;;;;;;5052350;28;20145;-69
2021/10/30 08:37:05;;;;;;;80.18;61.10;;;13.10;62.50;;;;;;5052458;28;20106;-70
2021/10/30 08:39:32;;;;;;;74.85;58.28;;;13.20;62.20;;;;;;5034383;28;20057;-70
2021/10/30 08:41:57;;;;;;;77.32;60.20;;;13.30;62.30;;;;;;5033482;28;20036;-73
2021/10/30 08:44:42;;;;;;;83.70;61.28;;;13.30;62.40;;;;;;5051871;28;20459;-72
2021/10/30 08:47:08;;;;;;;77.40;59.40;;;13.40;62.40;;;;;;5051855;28;20032;-71
2021/10/30 08:49:38;;;;;;;75.82;59.65;;;13.50;62.10;;;;;;5051304;28;20174;-74
2021/10/30 08:52:05;;;;;;;75.82;57.28;;;13.50;62.10;;;;;;5051279;28;20057;-72
2021/10/30 08:54:34;;;;;;;84.13;61.65;;;13.50;62.10;;;;;;5033387;28;20437;-73
2021/10/30 08:57:00;;;;;;;78.63;58.22;;;13.50;62.10;;;;;;5051572;28;20378;-71
2021/10/30 08:59:44;;;;;;;75.47;57.97;;;13.50;62.20;;;;;;5051362;28;20520;-71
2021/10/30 09:02:31;;;;;;;74.18;57.58;;;13.60;62.10;;;;;;5033636;28;20082;-71
2021/10/30 09:05:27;;;;;;;75.18;58.47;;;13.70;62.00;;;;;;5033166;28;20044;-74
2021/10/30 09:08:02;;;;;;;72.15;54.85;;;13.80;61.50;;;;;;5012398;28;20129;-69
2021/10/30 09:10:54;;;;;;;68.28;52.42;;;13.80;61.20;;;;;;5033266;28;20032;-72
2021/10/30 09:13:21;;;;;;;68.88;54.22;;;13.70;60.80;;;;;;5046105;28;20041;-72
2021/10/30 09:15:51;;;;;;;65.78;49.78;;;13.70;61.20;;;;;;5049965;28;20159;-71
2021/10/30 09:18:24;;;;;;;62.55;49.17;;;13.80;61.10;;;;;;5050453;28;20371;-70
2021/10/30 09:20:51;;;;;;;60.53;46.42;;;13.90;60.80;;;;;;5032497;28;20029;-72
2021/10/30 09:23:21;;;;;;;54.30;43.40;;;13.80;60.10;;;;;;5050433;28;20142;-73
2021/10/30 09:25:56;;;;;;;53.42;40.80;;;13.70;60.00;;;;;;5050460;28;20159;-73
2021/10/30 09:28:23;;;;;;;56.10;42.03;;;13.70;60.00;;;;;;5051070;28;20100;-74
2021/10/30 09:31:00;;;;;;;50.90;40.58;;;13.60;60.10;;;;;;5050727;28;20123;-71
2021/10/30 09:33:28;;;;;;;47.78;38.92;;;13.50;60.10;;;;;;5050800;28;20056;-70
2021/10/30 09:35:54;;;;;;;51.45;40.75;;;13.60;60.20;;;;;;5033388;28;20048;-74
2021/10/30 09:38:29;;;;;;;49.75;38.78;;;13.60;60.20;;;;;;5051075;28;20114;-73
2021/10/30 09:40:55;;;;;;;49.55;39.55;;;13.60;60.00;;;;;;5032959;28;20029;-73
2021/10/30 09:43:21;;;;;;;46.80;37.60;;;13.70;59.70;;;;;;5016271;28;20127;-71
2021/10/30 09:45:50;;;;;;;48.95;36.67;;;13.80;59.60;;;;;;5032421;28;20025;-70
2021/10/30 09:48:25;;;;;;;45.00;34.80;;;13.80;59.60;;;;;;5033357;28;20119;-72
2021/10/30 09:50:52;;;;;;;44.97;32.47;;;13.90;58.30;;;;;;5051338;28;20131;-69
2021/10/30 09:53:26;;;;;;;40.85;32.33;;;13.90;58.40;;;;;;5051608;28;20021;-71
2021/10/30 09:56:04;;;;;;;39.95;31.52;;;14.00;58.80;;;;;;5051177;28;20029;-75
2021/10/30 09:58:42;;;;;;;41.72;33.58;;;14.10;58.40;;;;;;5030516;28;20086;-74
2021/10/30 10:01:20;;;;;;;40.53;34.78;;;14.00;57.70;;;;;;5032626;28;20378;-74
2021/10/30 10:03:48;;;;;;;39.80;31.92;;;14.20;57.70;;;;;;5051047;28;20029;-70
2021/10/30 10:06:23;;;;;;;46.58;35.95;;;14.20;57.10;;;;;;5050733;28;20061;-76
2021/10/30 10:08:50;;;;;;;49.28;35.78;;;14.20;57.60;;;;;;5050568;28;20094;-71
2021/10/30 10:11:19;;;;;;;44.60;35.30;;;14.30;57.40;;;;;;5050298;28;20036;-72
2021/10/30 10:13:48;;;;;;;46.72;36.65;;;14.20;57.20;;;;;;5031791;28;20048;-73
2021/10/30 10:16:20;;;;;;;45.00;34.28;;;14.30;57.10;;;;;;5032567;28;20113;-69
2021/10/30 10:18:56;;;;;;;43.40;34.15;;;14.40;56.90;;;;;;5032597;28;20051;-70
2021/10/30 10:21:34;;;;;;;42.80;34.80;;;14.50;56.60;;;;;;5032652;28;20065;-73
2021/10/30 10:24:10;;;;;;;49.83;37.00;;;14.50;56.60;;;;;;5049275;28;20037;-72
2021/10/30 10:26:52;;;;;;;47.60;35.95;;;14.60;56.20;;;;;;5030050;28;20059;-66
2021/10/30 10:29:33;;;;;;;48.92;37.63;;;14.70;56.30;;;;;;5049447;28;20025;-67
2021/10/30 10:32:07;;;;;;;46.75;35.13;;;14.80;56.00;;;;;;5049483;28;20028;-68
2021/10/30 10:34:41;;;;;;;42.70;34.85;;;14.80;55.60;;;;;;5033297;28;20095;-70
2021/10/30 10:37:13;;;;;;;49.30;40.35;;;14.70;56.40;;;;;;5052987;28;20029;-66
2021/10/30 10:39:39;;;;;;;52.55;38.15;;;14.60;56.00;;;;;;5034411;28;20115;-72
2021/10/30 10:42:07;;;;;;;46.60;37.17;;;14.60;56.70;;;;;;5034989;28;20052;-66
2021/10/30 10:44:41;;;;;;;48.03;37.85;;;14.60;56.00;;;;;;5035136;28;20029;-70
2021/10/30 10:47:34;;;;;;;48.53;37.65;;;14.70;56.00;;;;;;5054192;28;20490;-67
2021/10/30 10:50:23;;;;;;;47.22;38.03;;;14.70;55.90;;;;;;5053337;28;20055;-66
2021/10/30 10:53:07;;;;;;;49.92;37.67;;;14.80;55.70;;;;;;5051964;28;20631;-68
2021/10/30 10:55:37;;;;;;;;;;;14.80;55.60;;;;;;5052872;28;20024;-70
2021/10/30 10:58:07;;;;;;;50.67;39.10;;;14.90;55.40;;;;;;5053105;28;20406;-67
2021/10/30 11:00:34;;;;;;;51.05;38.38;;;14.80;55.60;;;;;;5053274;28;20033;-68
2021/10/30 11:03:01;;;;;;;51.38;37.15;;;15.00;55.40;;;;;;5054440;28;20101;-68
2021/10/30 11:05:28;;;;;;;47.92;37.72;;;15.30;55.10;;;;;;5035822;28;20025;-67
2021/10/30 11:07:54;;;;;;;44.13;36.15;;;15.80;53.40;;;;;;5052475;28;20505;-67
2021/10/30 11:10:27;;;;;;;43.58;35.85;;;16.00;51.90;;;;;;5053113;28;20025;-71
2021/10/30 11:13:02;;;;;;;43.95;35.85;;;15.80;52.50;;;;;;5034889;28;20036;-71
2021/10/30 11:15:54;;;;;;;50.00;39.47;;;15.60;52.70;;;;;;5053594;28;20120;-67
2021/10/30 11:21:17;;;;;;;49.33;38.40;;;15.30;53.90;;;;;;5052910;28;20451;-68
2021/10/30 11:23:48;;;;;;;49.20;38.97;;;15.20;54.30;;;;;;5052357;28;20029;-68
2021/10/30 11:26:21;;;;;;;55.45;40.58;;;15.20;54.20;;;;;;5035704;28;20020;-68
2021/10/30 11:28:46;;;;;;;47.13;40.17;;;15.60;54.20;;;;;;5034077;28;20040;-68
2021/10/30 11:31:14;;;;;;;47.10;38.67;;;15.90;52.70;;;;;;5033774;28;20341;-68
2021/10/30 11:33:39;;;;;;;48.22;38.85;;;15.80;53.20;;;;;;5050828;28;20056;-67
2021/10/30 11:36:11;;;;;;;46.80;37.90;;;15.60;53.20;;;;;;5034104;28;20072;-69
2021/10/30 11:38:58;;;;;;;50.72;40.45;;;15.50;53.80;;;;;;5033770;28;20031;-68
2021/10/30 11:41:29;;;;;;;52.70;40.42;;;15.50;53.70;;;;;;5051815;28;20121;-68
2021/10/30 11:44:03;;;;;;;52.00;40.08;;;15.50;54.10;;;;;;5032768;28;20029;-68
2021/10/30 11:46:30;;;;;;;51.15;39.60;;;15.50;53.70;;;;;;5032875;28;20029;-68
2021/10/30 11:48:57;;;;;;;51.38;40.17;;;15.60;53.50;;;;;;5033794;28;20065;-68
2021/10/30 11:51:29;;;;;;;49.03;37.67;;;15.70;53.50;;;;;;5046132;28;20140;-68
2021/10/30 11:53:55;;;;;;;48.35;38.30;;;15.80;52.90;;;;;;5070186;28;20076;-68
2021/10/30 11:56:28;;;;;;;48.58;38.40;;;15.70;52.70;;;;;;5071658;28;20076;-68
2021/10/30 11:58:57;;;;;;;49.15;37.13;;;15.80;52.90;;;;;;5070164;28;20460;-69
2021/10/30 12:01:41;;;;;;;55.90;39.03;;;15.80;52.80;;;;;;5071450;28;20059;-67
2021/10/30 12:04:12;;;;;;;47.45;36.20;;;15.80;52.70;;;;;;5069930;28;20128;-69
2021/10/30 12:06:45;;;;;;;45.58;36.45;;;15.80;52.60;;;;;;5071335;28;20025;-69
2021/10/30 12:09:18;;;;;;;44.05;36.00;;;15.80;52.50;;;;;;5070226;28;20025;-70
2021/10/30 12:11:44;;;;;;;45.30;34.67;;;16.20;52.10;;;;;;5069812;28;20120;-69
2021/10/30 12:14:10;;;;;;;41.42;33.88;;;16.60;50.40;;;;;;5071678;28;20380;-69
2021/10/30 12:16:36;;;;;;;44.25;36.25;;;16.90;49.70;;;;;;5070699;28;20025;-68
2021/10/30 12:19:04;;;;;;;40.85;34.63;;;16.90;49.50;;;;;;5069418;28;20060;-67
2021/10/30 12:21:37;;;;;;;43.90;35.67;;;16.80;49.90;;;;;;5069528;28;20044;-70
2021/10/30 12:24:05;;;;;;;38.65;34.47;;;16.60;50.00;;;;;;5071061;28;20136;-71
2021/10/30 12:26:51;;;;;;;41.78;33.60;;;16.40;50.30;;;;;;5069651;28;20044;-72
2021/10/30 12:29:18;;;;;;;46.40;36.13;;;16.20;50.90;;;;;;5071161;28;20150;-71
2021/10/30 12:32:07;;;;;;;44.60;34.08;;;16.10;51.30;;;;;;5070487;28;20465;-71
2021/10/30 12:34:36;;;;;;;44.65;34.45;;;16.00;51.10;;;;;;5069400;28;20036;-72
2021/10/30 12:37:07;;;;;;;41.25;33.53;;;16.10;51.30;;;;;;5068327;28;20120;-72
2021/10/30 12:39:33;;;;;;;41.28;33.20;;;16.20;51.00;;;;;;5060577;28;20032;-71